Charles Town, WV (25414)

12:59 AM EST op 18 januari 2017 (GMT -0500)
American Public University System WeatherSTEM | | Change Station

Hoogte 511 ft 39.29 °N, 77.86 °W | Updated 4 minutes ago

Mist
Mist
40.1 °F
Voelt als 40 °F
N
1.0
Wind Variabel Wind van NNO

Vandaag
Hoog -- | Laag -- °F
--% Kans op neerslag
Gisteren
Hoog -- | Laag -- °F
Precip. -- inches
Druk 29.89 inches
Zicht 0.2 mijlen
Wolken
Gevoelstemperatuur 40 °F
Dauwpunt 39 °F
Vochtigheid 97%
Neerslag 0.00 inches
Dikte sneeuw Niet beschikbaar.
7:28 AM 5:16 PM
Afnemende maan, 66% visible
METAR KMRB 180553Z AUTO 00000KT 1/4SM FG VV002 04/04 A2988 RMK AO2 SLP122 60001 T00440039 10044 20039 58009 TSNO
Druk 29.89 inches
Zicht 0.2 mijlen
Wolken
Gevoelstemperatuur 40 °F
Dauwpunt 39 °F
Vochtigheid 97%
Neerslag 0.00 inches
Dikte sneeuw Niet beschikbaar.
7:28 AM 5:16 PM
Afnemende maan, 66% visible
METAR KMRB 180553Z AUTO 00000KT 1/4SM FG VV002 04/04 A2988 RMK AO2 SLP122 60001 T00440039 10044 20039 58009 TSNO

Get Your Daily Forecast Email!

Thanks for signing up!

Be on the lookout for a verification email in your inbox.

You'll start receiving the daily forecast at 8 AM.

×

10-Day Weather Forecast

Almanac

Astronomie

Jan. 18, 2017 Opkomst Ondergang
Werkelijke tijd
Burgerlijke schemering
Nautische schemering
Astronomische schemering
Maan
Golflengte van het zichtbare licht
Daglengte
Tomorrow will be .
, % of the Moon is Illuminated

Extremen vandaag

State Highs State Lows

Community

WunderPhotos

Upload Photos

1,962,540 foto’s ge-upload!

WunderBlog® & News

Nearby

Luchtkwaliteit

  Luchtkwaliteit LK-index Verontreinigende stof
Not available.

Dikte sneeuw

Station Depth Geometrische hoogte

Aardbevingen

Stad Distance Mag. Time & Date
Minimum magnitude displayed is 2.5.

Watertemperatuur langs de kust

Plaats Temperatuur

Stations

Nabije weerstations

Locatie station Temp. Gevoelstemperatuur Dauwpunt Vochtigheid Wind Precip. Hoogte Geactualiseerd Type
                   

Watches & Warnings

Dense Fog Advisory
Issued: 12:02 AM EST Jan. 18, 2017 – National Weather Service

... Dense fog advisory remains in effect until 4 am EST early this
morning...

* visibilities... one quarter mile or less at times.

* Impacts... areas of dense fog will cause sudden reductions in
visibility and rapidly changing travel conditions.

Precautionary/preparedness actions...

A dense fog advisory means visibilities will frequently be
reduced to less than one quarter mile. If driving... slow down...
use low beam headlights... and leave plenty of distance ahead of
you.




Small Craft Advisory
Issued: 11:39 PM EST Jan. 17, 2017 – National Weather Service

... Small Craft Advisory remains in effect from 7 am to 6 PM EST
Wednesday...

* winds... 18 to 33 knots within the Small Craft Advisory.

Precautionary/preparedness actions...

A Small Craft Advisory means winds of 18 to 33 knots are imminent
or occurring. Boaters operating smaller vessels should avoid
navigating in these conditions.